createdAt,value
2023-04-02T00:00:50.368Z,13.3
2023-04-02T00:02:48.767Z,14.9
2023-04-02T00:04:54.212Z,13.2
2023-04-02T00:06:51.772Z,14.7
2023-04-02T00:08:49.370Z,14.5
2023-04-02T00:10:46.914Z,13.2
2023-04-02T00:12:44.469Z,11.6
2023-04-02T00:14:41.990Z,11.8
2023-04-02T00:18:45.046Z,11.2
2023-04-02T00:20:42.601Z,12.4
2023-04-02T00:22:40.152Z,12.3
2023-04-02T00:26:35.252Z,13.4
2023-04-02T00:28:32.845Z,10.8
2023-04-02T00:30:30.366Z,12
2023-04-02T00:32:35.864Z,14.8
2023-04-02T00:34:33.406Z,13.1
2023-04-02T00:36:30.951Z,15.5
2023-04-02T00:38:28.514Z,11.4
2023-04-02T00:42:23.617Z,15.9
2023-04-02T00:46:26.691Z,13.7
2023-04-02T00:50:21.768Z,12.6
2023-04-02T00:53:22.038Z,9.9
2023-04-02T01:03:17.829Z,11.9
2023-04-02T01:05:15.262Z,12.4
2023-04-02T01:07:12.799Z,13.5
2023-04-02T01:09:10.396Z,14.3
2023-04-02T01:11:07.933Z,12.3
2023-04-02T01:15:10.934Z,12.3
2023-04-02T01:19:06.024Z,12.9
2023-04-02T01:24:58.686Z,11.1
2023-04-02T01:30:59.269Z,12.5
2023-04-02T01:32:56.827Z,11
2023-04-02T01:34:54.328Z,9.9
2023-04-02T01:38:49.444Z,12.7
2023-04-02T01:51:45.414Z,11.4
2023-04-02T01:55:48.385Z,13
2023-04-02T01:57:45.941Z,9.9
2023-04-02T01:59:43.474Z,12.3
2023-04-02T02:11:36.672Z,10.1
2023-04-02T02:13:34.355Z,10.4
2023-04-02T02:15:31.775Z,10.5
2023-04-02T02:17:29.329Z,12.4
2023-04-02T02:19:26.866Z,11.8
2023-04-02T02:21:32.290Z,11.4
2023-04-02T02:23:29.903Z,11.9
2023-04-02T02:25:27.379Z,10.9
2023-04-02T02:27:24.948Z,12.9
2023-04-02T02:39:18.146Z,11
2023-04-02T02:41:45.081Z,11.8
2023-04-02T02:43:42.649Z,12.2
2023-04-02T02:47:45.708Z,10.7
2023-04-02T02:51:40.766Z,10.4
2023-04-02T02:55:36.152Z,12.8
2023-04-02T02:57:33.425Z,11.9
2023-04-02T02:59:30.963Z,11.5
2023-04-02T03:01:36.431Z,11.4
2023-04-02T03:09:26.598Z,8.9
2023-04-02T03:11:24.175Z,9.5
2023-04-02T03:15:27.160Z,9.9
2023-04-02T03:17:24.689Z,9.5
2023-04-02T03:21:19.778Z,10.2
2023-04-02T03:25:14.842Z,8.6
2023-04-02T03:31:16.299Z,10.5
2023-04-02T03:33:12.942Z,9.4
2023-04-02T03:34:15.656Z,8.7
2023-04-02T03:36:13.297Z,7.4
2023-04-02T03:40:08.308Z,7.4
2023-04-02T03:44:11.297Z,8.2
2023-04-02T03:46:08.921Z,8.3
2023-04-02T03:48:06.364Z,6.8
2023-04-02T03:50:03.895Z,7.8
2023-04-02T03:52:01.434Z,8.1
2023-04-02T03:56:04.400Z,7.7
2023-04-02T03:58:01.995Z,7
2023-04-02T03:59:59.507Z,7.3
2023-04-02T04:01:57.045Z,7.8
2023-04-02T04:05:52.119Z,5.2
2023-04-02T04:07:49.640Z,6.6
2023-04-02T04:09:55.065Z,4.8
2023-04-02T04:11:52.613Z,5.2
2023-04-02T04:13:50.161Z,5
2023-04-02T04:19:42.759Z,3.8
2023-04-02T04:23:45.679Z,3.7
2023-04-02T04:25:43.207Z,4.1
2023-04-02T04:27:40.731Z,3.9
2023-04-02T04:28:43.479Z,4.2
2023-04-02T04:30:41.022Z,5.2
2023-04-02T04:32:38.556Z,4.5
2023-04-02T04:40:36.563Z,4.4
2023-04-02T04:42:34.087Z,5.8
2023-04-02T04:44:31.631Z,4.2
2023-04-02T04:46:29.315Z,4.8
2023-04-02T04:48:26.765Z,4.2
2023-04-02T04:50:32.137Z,5.7
2023-04-02T04:52:29.661Z,4.4
2023-04-02T04:54:27.246Z,3.4
2023-04-02T04:56:24.722Z,4.7
2023-04-02T04:58:22.236Z,4.7
2023-04-02T05:00:19.748Z,3.8
2023-04-02T05:04:24.233Z,3.3
2023-04-02T05:06:21.768Z,3.4
2023-04-02T05:08:19.257Z,3.1
2023-04-02T05:10:16.809Z,2.7
2023-04-02T05:12:14.326Z,2.8
2023-04-02T05:16:09.398Z,2.4
2023-04-02T05:20:12.310Z,2.9
2023-04-02T05:22:09.849Z,3.2
2023-04-02T05:23:12.583Z,4.4
2023-04-02T05:33:08.159Z,4.2
2023-04-02T05:35:05.568Z,2.9
2023-04-02T05:39:00.603Z,3.3
2023-04-02T05:42:55.754Z,4.1
2023-04-02T05:45:01.071Z,4.2
2023-04-02T05:48:56.104Z,2.8
2023-04-02T05:52:51.160Z,3.2
2023-04-02T05:54:48.704Z,3.7
2023-04-02T05:56:46.188Z,4.1
2023-04-02T05:58:51.692Z,2.7
2023-04-02T06:00:49.152Z,3.3
2023-04-02T06:02:46.765Z,3.1
2023-04-02T06:04:44.200Z,2.8
2023-04-02T06:06:41.705Z,3.4
2023-04-02T06:12:42.142Z,2.9
2023-04-02T06:16:37.190Z,3.8
2023-04-02T06:18:54.022Z,4
2023-04-02T06:20:55.888Z,4.1
2023-04-02T06:22:49.070Z,4
2023-04-02T06:28:49.503Z,4.5
2023-04-02T06:30:47.069Z,3.5
2023-04-02T06:32:44.551Z,3.5
2023-04-02T06:34:42.045Z,4.6
2023-04-02T06:44:37.493Z,4.7
2023-04-02T06:48:33.175Z,4
2023-04-02T06:58:28.624Z,3.9
2023-04-02T07:11:24.486Z,4.9
2023-04-02T07:13:21.997Z,4.3
2023-04-02T07:15:19.493Z,6.1
2023-04-02T07:17:17.001Z,3.1
2023-04-02T07:21:19.933Z,2.9
2023-04-02T07:25:14.970Z,4.3
2023-04-02T07:27:12.483Z,2.4
2023-04-02T07:29:09.991Z,3.8
2023-04-02T07:31:07.575Z,3.9
2023-04-02T07:33:12.920Z,2.3
2023-04-02T07:41:02.984Z,3.7
2023-04-02T07:43:00.481Z,2.8
2023-04-02T07:44:58.012Z,3.5
2023-04-02T07:47:03.487Z,3.4
2023-04-02T07:49:00.946Z,4.4
2023-04-02T07:50:58.452Z,3.6
2023-04-02T07:52:55.979Z,4.8
2023-04-02T07:54:53.448Z,2.9
2023-04-02T07:56:50.985Z,3
2023-04-02T07:58:48.478Z,3.4
2023-04-02T08:00:53.876Z,3.9
2023-04-02T08:02:51.535Z,2.7
2023-04-02T08:04:48.893Z,3
2023-04-02T08:05:51.626Z,3.3
2023-04-02T08:07:49.124Z,3
2023-04-02T08:09:46.639Z,3.3
2023-04-02T08:11:44.178Z,2.7
2023-04-02T08:13:49.554Z,3
2023-04-02T08:15:47.116Z,2.3
2023-04-02T08:27:40.081Z,2.1
2023-04-02T08:31:35.081Z,3.5
2023-04-02T08:33:32.578Z,2
2023-04-02T08:35:30.131Z,2.4
2023-04-02T08:37:27.617Z,2.6
2023-04-02T08:51:18.193Z,1.7
2023-04-02T08:53:15.701Z,2.2
2023-04-02T08:55:21.153Z,1.4
2023-04-02T09:00:18.929Z,1.5
2023-04-02T09:06:11.522Z,1.2
2023-04-02T09:08:16.932Z,2
2023-04-02T09:14:09.604Z,1.9
2023-04-02T09:16:07.120Z,1.8
2023-04-02T09:18:04.688Z,2.1
2023-04-02T09:20:02.143Z,1.4
2023-04-02T09:22:07.677Z,2.3
2023-04-02T09:24:05.313Z,2.3
2023-04-02T09:26:04.918Z,2.2
2023-04-02T09:45:45.860Z,2.3
2023-04-02T09:49:48.864Z,2.1
2023-04-02T09:53:43.871Z,3.1
2023-04-02T09:56:01.252Z,2.6
2023-04-02T09:58:00.377Z,2.4
2023-04-02T09:59:56.318Z,1.6
2023-04-02T10:02:01.728Z,2.9
2023-04-02T10:05:56.825Z,2.2
2023-04-02T10:07:54.368Z,2.3
2023-04-02T10:09:51.892Z,2.3
2023-04-02T10:13:46.957Z,1.8
2023-04-02T10:17:49.957Z,2.1
2023-04-02T10:21:45.041Z,2
2023-04-02T10:23:42.576Z,2
2023-04-02T10:25:40.116Z,2.1
2023-04-02T10:29:43.126Z,1.8
2023-04-02T10:35:36.033Z,1.4
2023-04-02T10:37:33.347Z,2
2023-04-02T10:39:30.882Z,2.4
2023-04-02T10:41:28.426Z,2.3
2023-04-02T10:43:35.452Z,1.6
2023-04-02T10:47:30.594Z,2.4
2023-04-02T10:48:33.282Z,2
2023-04-02T10:50:30.813Z,1.7
2023-04-02T10:58:28.970Z,2.7
2023-04-02T11:02:24.143Z,1.9
2023-04-02T11:04:21.649Z,2
2023-04-02T11:06:19.228Z,2.5
2023-04-02T11:08:16.771Z,2.8
2023-04-02T11:16:14.986Z,1.3
2023-04-02T11:20:10.120Z,1.9
2023-04-02T11:24:13.151Z,2.1
2023-04-02T11:26:10.748Z,1.7
2023-04-02T11:28:08.339Z,1.5
2023-04-02T11:30:05.944Z,2.8
2023-04-02T11:34:01.122Z,1.3
2023-04-02T11:35:58.751Z,1.8
2023-04-02T11:44:59.715Z,2.1
2023-04-02T11:46:57.476Z,1.7
2023-04-02T11:56:53.212Z,1.1
2023-04-02T11:58:50.792Z,2
2023-04-02T12:00:48.382Z,1.4
2023-04-02T12:04:51.482Z,1.7
2023-04-02T12:08:57.016Z,1.8
2023-04-02T12:10:44.200Z,1.8
2023-04-02T12:12:41.773Z,1.2
2023-04-02T12:14:39.372Z,2
2023-04-02T12:20:40.020Z,1.5
2023-04-02T12:22:37.597Z,1.1
2023-04-02T12:24:35.179Z,1.6
2023-04-02T12:26:32.768Z,1
2023-04-02T12:28:30.360Z,2.7
2023-04-02T12:30:27.923Z,1
2023-04-02T12:32:33.427Z,1.5
2023-04-02T12:39:28.895Z,2.6
2023-04-02T12:41:26.482Z,1.9
2023-04-02T12:51:22.224Z,2.2
2023-04-02T12:53:19.742Z,1.1
2023-04-02T13:07:10.454Z,1.5
2023-04-02T13:09:07.989Z,0.9
2023-04-02T13:11:05.552Z,1.9
2023-04-02T13:13:10.987Z,1.8
2023-04-02T13:15:08.527Z,1.7
2023-04-02T13:17:06.080Z,0.9
2023-04-02T13:19:03.573Z,1.2
2023-04-02T13:21:01.119Z,1.6
2023-04-02T13:22:58.646Z,2.5
2023-04-02T13:24:56.150Z,1.2
2023-04-02T13:27:01.634Z,2.3
2023-04-02T13:33:23.407Z,1.5
2023-04-02T13:35:20.927Z,1.7
2023-04-02T13:37:18.448Z,0.8
2023-04-02T13:39:23.870Z,7.7
2023-04-02T13:41:21.399Z,5.2
2023-04-02T13:43:18.857Z,1.8
2023-04-02T13:45:16.354Z,1.1
2023-04-02T14:03:01.845Z,2.2
2023-04-02T14:04:59.254Z,1.5
2023-04-02T14:07:04.692Z,1
2023-04-02T14:09:02.160Z,1.3
2023-04-02T14:10:59.628Z,1.5
2023-04-02T14:12:57.118Z,1.7
2023-04-02T14:14:54.554Z,0.7
2023-04-02T14:16:52.095Z,1.6
2023-04-02T14:18:49.500Z,1
2023-04-02T14:20:54.928Z,1.1
2023-04-02T14:22:52.418Z,1.1
2023-04-02T14:24:49.877Z,1.3
2023-04-02T14:25:52.584Z,1.8
2023-04-02T14:45:34.979Z,1.2
2023-04-02T14:47:40.428Z,1.5
2023-04-02T14:51:35.257Z,2.1
2023-04-02T15:01:30.765Z,1.1
2023-04-02T15:03:28.281Z,1.4
2023-04-02T15:07:23.286Z,1.8
2023-04-02T15:09:20.833Z,0.8
2023-04-02T15:11:18.458Z,2.3
2023-04-02T15:20:19.431Z,1.2
2023-04-02T15:22:17.015Z,1.3
2023-04-02T15:24:14.619Z,2.1
2023-04-02T15:26:12.205Z,0.9
2023-04-02T15:28:17.732Z,1.6
2023-04-02T15:30:15.326Z,1.5
2023-04-02T15:32:12.895Z,2.6
2023-04-02T15:34:10.530Z,1.3
2023-04-02T15:36:08.092Z,2
2023-04-02T15:38:05.683Z,1.7
2023-04-02T15:40:03.281Z,2.6
2023-04-02T15:53:54.373Z,1.8
2023-04-02T15:55:59.844Z,1.3
2023-04-02T15:57:57.456Z,1.9
2023-04-02T15:59:55.037Z,1.7
2023-04-02T16:01:52.652Z,1.7
2023-04-02T16:03:50.253Z,2.6
2023-04-02T16:05:47.851Z,1.5
2023-04-02T16:07:45.396Z,2.7
2023-04-02T16:09:50.920Z,2.4
2023-04-02T16:11:48.506Z,2
2023-04-02T16:13:46.143Z,1.3
2023-04-02T16:14:48.894Z,1.9
2023-04-02T16:16:46.528Z,1.7
2023-04-02T16:18:44.098Z,1.7
2023-04-02T16:20:41.696Z,2.1
2023-04-02T16:22:59.204Z,2.1
2023-04-02T16:26:43.925Z,2
2023-04-02T16:30:39.269Z,2.3
2023-04-02T16:32:36.722Z,1.5
2023-04-02T16:34:34.307Z,1.7
2023-04-02T16:38:38.524Z,1.6
2023-04-02T16:40:36.196Z,2.7
2023-04-02T16:42:33.525Z,2.5
2023-04-02T16:44:31.106Z,2.3
2023-04-02T16:46:38.887Z,2.3
2023-04-02T16:48:26.304Z,2.2
2023-04-02T16:50:31.820Z,2.6
2023-04-02T16:58:22.241Z,2.2
2023-04-02T17:04:22.910Z,2.6
2023-04-02T17:06:20.494Z,1.4
2023-04-02T17:08:18.145Z,2.1
2023-04-02T17:18:43.299Z,1.8
2023-04-02T17:20:40.963Z,1.6
2023-04-02T17:22:38.511Z,1.8
2023-04-02T17:26:33.719Z,1.6
2023-04-02T17:30:37.102Z,1.4
2023-04-02T17:32:34.427Z,1.4
2023-04-02T17:34:32.021Z,2.1
2023-04-02T17:36:29.591Z,2
2023-04-02T17:38:27.188Z,1.5
2023-04-02T17:40:24.794Z,2.1
2023-04-02T17:42:22.420Z,1.4
2023-04-02T17:44:27.878Z,1.7
2023-04-02T17:46:25.623Z,2.1
2023-04-02T17:48:23.092Z,1.7
2023-04-02T17:50:20.694Z,1.3
2023-04-02T17:54:15.889Z,1.6
2023-04-02T17:56:13.493Z,1.7
2023-04-02T17:58:19.025Z,2.3
2023-04-02T18:00:16.643Z,1.5
2023-04-02T18:03:17.004Z,1.5
2023-04-02T18:05:14.548Z,1.9
2023-04-02T18:07:12.147Z,2.5
2023-04-02T18:11:15.236Z,1.4
2023-04-02T18:13:12.848Z,2.5
2023-04-02T18:17:08.041Z,2.9
2023-04-02T18:23:00.819Z,1.4
2023-04-02T18:25:06.323Z,2.6
2023-04-02T18:34:54.254Z,2.7
2023-04-02T18:36:51.855Z,2.6
2023-04-02T18:38:57.346Z,2.8
2023-04-02T18:40:54.950Z,2.4
2023-04-02T18:42:52.547Z,2.4
2023-04-02T18:44:50.136Z,1.5
2023-04-02T18:46:47.767Z,2.2
2023-04-02T18:48:45.388Z,1.5
2023-04-02T18:50:42.949Z,1.9
2023-04-02T18:52:48.420Z,1.5
2023-04-02T18:54:46.020Z,1.5
2023-04-02T19:05:44.700Z,2.3
2023-04-02T19:07:42.214Z,1.5
2023-04-02T19:17:30.195Z,2.4
2023-04-02T19:19:35.679Z,2.6
2023-04-02T19:21:33.258Z,2.2
2023-04-02T19:23:30.825Z,3.1
2023-04-02T19:25:28.405Z,2.9
2023-04-02T19:27:25.991Z,2.5
2023-04-02T19:33:26.646Z,1.8
2023-04-02T19:39:19.394Z,3.3
2023-04-02T19:41:16.972Z,2.1
2023-04-02T19:43:14.545Z,2.5
2023-04-02T19:45:12.110Z,2.4
2023-04-02T19:47:17.613Z,2.6
2023-04-02T19:49:15.203Z,2.6
2023-04-02T19:51:12.791Z,1.9
2023-04-02T19:52:15.521Z,1.9
2023-04-02T20:04:08.975Z,1.8
2023-04-02T20:06:06.507Z,1.8
2023-04-02T20:08:04.095Z,5.1
2023-04-02T20:10:01.667Z,1.8
2023-04-02T20:11:59.240Z,1.8
2023-04-02T20:14:04.698Z,2
2023-04-02T20:16:02.311Z,2.3
2023-04-02T20:19:57.443Z,2.2
2023-04-02T20:21:55.052Z,3.3
2023-04-02T20:23:52.629Z,2.3
2023-04-02T20:25:50.200Z,3.1
2023-04-02T20:27:55.672Z,3.1
2023-04-02T20:29:53.238Z,3.4
2023-04-02T20:33:48.510Z,2
2023-04-02T20:35:45.947Z,2
2023-04-02T20:37:43.476Z,2.4
2023-04-02T20:39:41.039Z,2.8
2023-04-02T20:41:46.513Z,1.4
2023-04-02T20:47:59.025Z,1.9
2023-04-02T20:49:56.533Z,2.2
2023-04-02T20:53:59.574Z,2.4
2023-04-02T21:13:43.172Z,2.1
2023-04-02T21:15:40.791Z,1.4
2023-04-02T21:17:38.316Z,1.8
2023-04-02T21:19:35.852Z,2.3
2023-04-02T21:21:41.273Z,2.1
2023-04-02T21:23:38.852Z,2.8
2023-04-02T21:25:36.570Z,2.2
2023-04-02T21:27:33.982Z,1.9
2023-04-02T21:29:31.554Z,1.7
2023-04-02T21:40:30.026Z,3
2023-04-02T21:42:27.566Z,2.7
2023-04-02T21:44:25.119Z,1.7
2023-04-02T21:46:22.770Z,2.5
2023-04-02T21:48:28.134Z,2.8
2023-04-02T21:50:25.720Z,1.3
2023-04-02T21:52:23.290Z,1.9
2023-04-02T21:54:20.835Z,1.7
2023-04-02T22:06:15.649Z,2.6
2023-04-02T22:08:13.185Z,2.3
2023-04-02T22:10:10.752Z,2.1
2023-04-02T22:14:05.830Z,2.2
2023-04-02T22:16:11.311Z,1.9
2023-04-02T22:18:08.851Z,2.2
2023-04-02T22:20:06.383Z,2.2
2023-04-02T22:22:03.936Z,1.9
2023-04-02T22:24:01.480Z,2
2023-04-02T22:25:59.032Z,2.2
2023-04-02T22:27:56.600Z,1.7
2023-04-02T22:31:59.548Z,2
2023-04-02T22:33:57.081Z,2.4
2023-04-02T22:40:52.421Z,2.5
2023-04-02T22:42:57.846Z,1.7
2023-04-02T22:44:55.395Z,2.3
2023-04-02T22:48:50.514Z,2.9
2023-04-02T22:50:48.020Z,2.3
2023-04-02T23:00:43.622Z,1.9
2023-04-02T23:04:38.719Z,2.3
2023-04-02T23:10:39.240Z,1.9
2023-04-02T23:12:36.747Z,1.9
2023-04-02T23:14:34.290Z,2.2
2023-04-02T23:16:31.884Z,2
2023-04-02T23:18:29.330Z,2.5
2023-04-02T23:22:24.421Z,2.2
2023-04-02T23:24:29.848Z,2.7
2023-04-02T23:26:27.407Z,1.5
2023-04-02T23:29:27.655Z,2.4
2023-04-02T23:31:25.220Z,2.1
2023-04-02T23:33:22.741Z,1.9
2023-04-02T23:35:20.273Z,1.8
2023-04-02T23:39:23.219Z,2.3
2023-04-02T23:41:20.769Z,2
2023-04-02T23:43:18.305Z,2.3
2023-04-02T23:55:11.372Z,1.8
